Time;durP1;ratioP1;P1;durP2;ratioP2;P2;SDS_P1;SDS_P2;PMS_P1;PMS_P2;Temp;Humidity;BMP_temperature;BMP_pressure;BME280_temperature;BME280_humidity;BME280_pressure;Samples;Min_cycle;Max_cycle;Signal;HPM_P1;HPM_P2
2021/01/22 00:02:24;;;;;;;2.35;0.60;;;;;;;25.89;34.06;96329.53;4992501;28;20624;-62
2021/01/22 00:04:51;;;;;;;2.13;0.80;;;;;;;25.94;34.20;96333.13;4991162;28;20220;-64
2021/01/22 00:07:18;;;;;;;1.48;0.73;;;;;;;25.90;34.26;96317.78;4990453;28;20209;-63
2021/01/22 00:09:44;;;;;;;3.53;0.85;;;;;;;25.91;33.73;96298.78;4991146;28;20221;-64
2021/01/22 00:12:10;;;;;;;2.03;0.60;;;;;;;25.89;33.48;96302.78;4990589;28;20256;-64
2021/01/22 00:14:36;;;;;;;2.53;0.70;;;;;;;25.87;33.19;96275.44;4990243;28;20251;-64
2021/01/22 00:17:03;;;;;;;1.88;0.90;;;;;;;25.85;33.20;96289.84;4990549;28;20292;-64
2021/01/22 00:19:29;;;;;;;1.20;0.70;;;;;;;25.89;33.33;96286.72;4990931;28;20224;-62
2021/01/22 00:21:56;;;;;;;1.73;0.60;;;;;;;25.92;34.03;96288.91;4991869;28;20673;-61
2021/01/22 00:24:22;;;;;;;0.77;0.60;;;;;;;25.91;33.19;96276.56;4990651;28;20202;-63
2021/01/22 00:26:49;;;;;;;1.63;0.65;;;;;;;25.93;33.21;96277.16;4990753;28;20197;-64
2021/01/22 00:29:15;;;;;;;2.25;0.70;;;;;;;25.89;34.02;96268.78;4992184;28;20233;-63
2021/01/22 00:31:41;;;;;;;1.17;0.50;;;;;;;25.92;33.90;96272.84;4990338;28;20297;-63
2021/01/22 00:34:07;;;;;;;1.13;0.70;;;;;;;25.89;33.23;96265.28;4989851;28;20677;-64
2021/01/22 00:36:33;;;;;;;1.40;0.85;;;;;;;25.85;34.13;96263.09;4990314;28;20201;-64
2021/01/22 00:39:00;;;;;;;2.03;0.80;;;;;;;25.90;33.13;96242.84;4990121;28;20209;-64
2021/01/22 00:41:26;;;;;;;2.63;0.70;;;;;;;25.88;33.32;96244.91;4991476;28;20269;-63
2021/01/22 00:43:52;;;;;;;1.67;0.60;;;;;;;25.83;34.34;96246.44;4991822;28;20305;-64
2021/01/22 00:46:18;;;;;;;1.67;0.75;;;;;;;25.87;34.08;96254.00;4992607;28;20241;-64
2021/01/22 00:48:44;;;;;;;1.63;0.70;;;;;;;25.76;34.25;96248.41;4993592;28;20211;-64
2021/01/22 00:51:10;;;;;;;1.25;0.70;;;;;;;25.82;34.15;96242.13;4992832;28;20225;-65
2021/01/22 00:53:38;;;;;;;2.42;0.70;;;;;;;25.87;33.75;96248.66;4993110;28;20700;-63
2021/01/22 00:56:06;;;;;;;0.70;0.50;;;;;;;25.83;33.70;96230.41;4993829;28;20231;-63
2021/01/22 00:58:32;;;;;;;0.70;0.50;;;;;;;25.83;33.02;96229.56;4989826;28;20617;-64
2021/01/22 01:00:58;;;;;;;4.13;0.93;;;;;;;25.81;32.96;96232.50;4990594;28;20236;-65
2021/01/22 01:03:24;;;;;;;1.35;0.55;;;;;;;25.81;33.23;96226.31;4990384;28;20219;-62
2021/01/22 01:05:51;;;;;;;0.82;0.65;;;;;;;25.80;34.03;96216.66;4990471;28;20209;-62
2021/01/22 01:08:17;;;;;;;1.02;0.50;;;;;;;25.84;34.14;96226.66;4989439;28;20214;-64
2021/01/22 01:10:43;;;;;;;0.40;0.40;;;;;;;25.89;33.62;96233.16;4989414;28;20252;-64
2021/01/22 01:13:10;;;;;;;0.73;0.60;;;;;;;25.81;33.85;96220.97;4990685;28;20233;-64
2021/01/22 01:15:36;;;;;;;1.23;0.60;;;;;;;25.81;34.02;96212.94;4988990;28;20205;-64
2021/01/22 01:18:03;;;;;;;1.70;0.60;;;;;;;25.80;33.73;96211.31;4989454;28;20774;-62
2021/01/22 01:20:29;;;;;;;0.73;0.50;;;;;;;25.80;33.66;96214.81;4990319;28;20617;-62
2021/01/22 01:22:55;;;;;;;1.70;0.70;;;;;;;25.79;33.19;96207.81;4989276;28;20205;-63
2021/01/22 01:25:21;;;;;;;3.70;0.50;;;;;;;25.74;33.38;96206.91;4990161;28;20209;-62
2021/01/22 01:27:47;;;;;;;1.17;0.60;;;;;;;25.83;33.50;96208.97;4989619;28;20209;-63
2021/01/22 01:30:16;;;;;;;0.50;0.50;;;;;;;25.78;33.16;96214.22;4990579;28;20225;-64
2021/01/22 01:32:42;;;;;;;0.40;0.40;;;;;;;25.77;33.16;96220.63;4988224;28;20237;-64
2021/01/22 01:35:09;;;;;;;1.52;0.75;;;;;;;25.79;33.31;96210.47;4988913;28;20332;-64
2021/01/22 01:37:35;;;;;;;1.17;0.55;;;;;;;25.76;32.94;96208.28;4988432;28;20292;-64
2021/01/22 01:40:01;;;;;;;2.53;0.60;;;;;;;25.80;33.26;96203.28;4990010;28;20259;-64
2021/01/22 01:42:28;;;;;;;0.90;0.60;;;;;;;25.81;33.35;96213.75;4989918;28;20344;-63
2021/01/22 01:44:54;;;;;;;0.45;0.40;;;;;;;25.80;32.97;96209.44;4988671;28;20213;-65
2021/01/22 01:47:20;;;;;;;0.40;0.40;;;;;;;25.78;33.30;96216.91;4989347;28;20344;-64
2021/01/22 01:49:47;;;;;;;1.45;0.50;;;;;;;25.74;32.57;96213.06;4989921;28;20227;-63
2021/01/22 01:52:13;;;;;;;1.17;0.50;;;;;;;25.62;33.95;96206.94;4988541;28;20221;-63
2021/01/22 01:54:40;;;;;;;0.70;0.50;;;;;;;25.70;33.29;96227.97;4989681;28;20284;-64
2021/01/22 01:57:07;;;;;;;1.70;0.70;;;;;;;25.70;33.38;96222.63;4990647;28;20216;-64
2021/01/22 02:02:55;;;;;;;0.77;0.50;;;;;;;25.80;33.47;96222.81;4991064;28;20217;-63
2021/01/22 02:05:21;;;;;;;0.65;0.47;;;;;;;25.79;33.37;96228.41;4989380;28;20228;-62
2021/01/22 02:07:47;;;;;;;1.80;0.50;;;;;;;25.78;33.71;96224.94;4990076;28;20205;-63
2021/01/22 02:10:15;;;;;;;0.77;0.40;;;;;;;25.73;33.96;96227.50;4987707;28;20225;-64
2021/01/22 02:12:42;;;;;;;0.70;0.40;;;;;;;25.71;33.09;96218.06;4989652;28;20244;-63
2021/01/22 02:15:10;;;;;;;1.60;0.52;;;;;;;25.67;33.95;96210.50;4990921;28;20201;-64
2021/01/22 02:17:37;;;;;;;3.60;0.50;;;;;;;25.70;33.90;96222.63;4991849;28;20322;-62
2021/01/22 02:20:15;;;;;;;0.80;0.30;;;;;;;25.73;33.12;96216.81;4990820;28;20226;-63
2021/01/22 02:22:41;;;;;;;1.75;0.57;;;;;;;25.78;33.93;96230.28;4992489;28;20282;-64
2021/01/22 02:25:10;;;;;;;0.70;0.40;;;;;;;25.71;32.99;96229.59;4992808;28;20209;-64
2021/01/22 02:27:38;;;;;;;0.63;0.50;;;;;;;25.67;33.57;96215.88;4994148;28;20262;-64
2021/01/22 02:30:05;;;;;;;0.50;0.50;;;;;;;25.71;33.70;96213.53;4992839;28;20308;-64
2021/01/22 02:32:33;;;;;;;1.02;0.45;;;;;;;25.75;33.77;96219.25;4993576;28;20722;-63
2021/01/22 02:35:02;;;;;;;1.33;0.60;;;;;;;25.65;33.07;96217.16;4992110;28;20240;-61
2021/01/22 02:37:29;;;;;;;0.88;0.50;;;;;;;25.66;33.94;96222.28;4993791;28;20232;-62
2021/01/22 02:39:58;;;;;;;0.77;0.40;;;;;;;25.62;34.01;96212.28;4991701;28;20701;-63
2021/01/22 02:42:25;;;;;;;0.38;0.30;;;;;;;25.60;33.47;96222.41;4992708;28;20712;-61
2021/01/22 02:44:54;;;;;;;1.00;0.50;;;;;;;25.54;33.01;96216.13;4992468;28;20296;-64
2021/01/22 02:47:22;;;;;;;0.55;0.45;;;;;;;25.60;34.05;96227.75;4993467;28;20208;-63
2021/01/22 02:49:50;;;;;;;1.50;0.60;;;;;;;25.51;33.63;96219.25;4992287;28;20248;-60
2021/01/22 02:52:16;;;;;;;0.73;0.50;;;;;;;25.59;33.53;96216.22;4993066;28;20229;-63
2021/01/22 02:54:43;;;;;;;0.63;0.40;;;;;;;25.64;34.01;96220.88;4993064;28;20208;-62
2021/01/22 02:57:17;;;;;;;0.93;0.55;;;;;;;25.63;33.29;96221.91;4992945;28;20293;-63
2021/01/22 02:59:50;;;;;;;1.50;0.50;;;;;;;25.66;33.03;96221.44;4993590;28;20240;-64
2021/01/22 03:02:23;;;;;;;0.65;0.50;;;;;;;25.58;33.35;96224.47;4992490;28;20561;-64
2021/01/22 03:04:50;;;;;;;1.85;0.40;;;;;;;25.62;33.11;96223.78;4993279;28;20205;-64
2021/01/22 03:07:22;;;;;;;1.05;0.57;;;;;;;25.61;33.82;96219.50;4991073;28;20205;-63
2021/01/22 03:09:53;;;;;;;1.27;0.60;;;;;;;25.62;33.27;96214.97;4993134;28;20321;-58
2021/01/22 03:12:19;;;;;;;2.05;0.40;;;;;;;25.64;33.19;96218.19;4992790;28;20225;-63
2021/01/22 03:14:48;;;;;;;1.17;0.68;;;;;;;25.59;33.40;96212.75;4991550;28;20205;-63
2021/01/22 03:17:18;;;;;;;0.50;0.40;;;;;;;25.55;33.58;96212.41;4992844;28;20657;-63
2021/01/22 03:19:45;;;;;;;1.75;0.70;;;;;;;25.50;33.39;96209.63;4992356;28;20280;-63
2021/01/22 03:22:11;;;;;;;1.15;0.50;;;;;;;25.49;33.85;96213.34;4991128;28;20206;-63
2021/01/22 03:24:38;;;;;;;2.80;0.60;;;;;;;25.46;33.66;96221.81;4992052;28;20206;-63
2021/01/22 03:27:04;;;;;;;2.88;0.70;;;;;;;25.36;34.96;96219.72;4992417;28;20252;-63
2021/01/22 03:29:30;;;;;;;0.82;0.60;;;;;;;25.42;34.09;96223.34;4992227;28;20276;-63
2021/01/22 03:31:57;;;;;;;1.55;0.60;;;;;;;25.39;33.54;96216.59;4990952;28;20608;-63
2021/01/22 03:34:26;;;;;;;0.90;0.60;;;;;;;25.43;33.91;96214.25;4991236;28;20201;-64
2021/01/22 03:36:53;;;;;;;1.30;0.60;;;;;;;25.39;33.93;96237.19;4991542;28;20209;-63
2021/01/22 03:39:20;;;;;;;1.13;0.73;;;;;;;25.41;34.41;96221.72;4991136;28;20247;-61
2021/01/22 03:41:46;;;;;;;1.15;0.60;;;;;;;25.40;34.54;96226.25;4991396;28;20205;-63
2021/01/22 03:44:13;;;;;;;1.17;0.70;;;;;;;25.41;34.42;96214.50;4991354;28;20687;-62
2021/01/22 03:46:39;;;;;;;0.80;0.50;;;;;;;25.33;34.32;96214.03;4991181;28;20272;-63
2021/01/22 03:49:05;;;;;;;0.55;0.50;;;;;;;25.30;34.38;96207.31;4991483;28;20206;-63
2021/01/22 03:51:32;;;;;;;1.85;0.63;;;;;;;25.44;33.38;96207.88;4991885;28;20209;-61
2021/01/22 03:53:58;;;;;;;1.23;0.45;;;;;;;25.50;33.99;96217.66;4991214;28;20236;-63
2021/01/22 03:56:24;;;;;;;0.70;0.47;;;;;;;25.57;33.49;96201.47;4992601;28;20665;-63
2021/01/22 03:58:50;;;;;;;1.48;0.57;;;;;;;25.57;33.72;96201.47;4991463;28;20198;-64
2021/01/22 04:01:18;;;;;;;0.60;0.50;;;;;;;25.62;33.05;96188.19;4990248;28;20229;-63
2021/01/22 04:03:44;;;;;;;1.13;0.70;;;;;;;25.69;32.85;96198.78;4990984;28;20679;-64
2021/01/22 04:06:10;;;;;;;2.47;0.60;;;;;;;25.69;33.36;96196.91;4990812;28;20611;-63
2021/01/22 04:08:37;;;;;;;0.75;0.38;;;;;;;25.69;33.30;96193.41;4992106;28;20216;-62
2021/01/22 04:11:03;;;;;;;3.90;0.70;;;;;;;25.65;32.87;96195.75;4992063;28;20229;-61
2021/01/22 04:13:30;;;;;;;0.80;0.52;;;;;;;25.60;33.18;96192.97;4990113;28;20229;-63
2021/01/22 04:15:56;;;;;;;1.40;0.40;;;;;;;25.52;33.29;96188.00;4990030;28;20611;-64
2021/01/22 04:18:22;;;;;;;1.52;0.50;;;;;;;25.42;33.14;96175.22;4991290;28;20617;-62
2021/01/22 04:20:48;;;;;;;2.85;0.70;;;;;;;25.48;33.71;96180.44;4990543;28;20229;-64
2021/01/22 04:23:14;;;;;;;1.10;0.57;;;;;;;25.48;33.06;96175.06;4990749;28;20292;-66
2021/01/22 04:25:41;;;;;;;1.45;0.60;;;;;;;25.43;34.10;96169.63;4990115;28;22214;-63
2021/01/22 04:28:07;;;;;;;1.30;0.68;;;;;;;25.49;33.47;96167.84;4990496;28;20576;-64
2021/01/22 04:30:33;;;;;;;0.93;0.50;;;;;;;25.44;33.94;96165.88;4990433;28;20283;-64
2021/01/22 04:32:59;;;;;;;1.27;0.40;;;;;;;25.47;33.69;96164.63;4990129;28;20225;-61
2021/01/22 04:35:25;;;;;;;1.20;0.47;;;;;;;25.55;33.90;96174.16;4990582;28;20246;-63
2021/01/22 04:37:51;;;;;;;2.30;0.60;;;;;;;25.55;33.48;96171.47;4989508;28;20278;-64
2021/01/22 04:40:18;;;;;;;0.68;0.65;;;;;;;25.51;33.36;96159.59;4989692;28;20241;-61
2021/01/22 04:42:46;;;;;;;1.70;0.68;;;;;;;25.51;33.98;96151.56;4989981;28;20562;-64
2021/01/22 04:45:13;;;;;;;1.08;0.60;;;;;;;25.49;32.95;96139.22;4990702;28;20267;-63
2021/01/22 04:47:41;;;;;;;0.68;0.50;;;;;;;25.45;33.74;96146.13;4990119;28;20209;-64
2021/01/22 04:50:09;;;;;;;0.80;0.50;;;;;;;25.43;33.13;96137.53;4990818;28;20228;-60
2021/01/22 04:52:36;;;;;;;2.20;0.60;;;;;;;25.46;33.13;96142.41;4989167;28;20229;-63
2021/01/22 04:55:05;;;;;;;1.85;0.90;;;;;;;25.46;33.37;96130.88;4990536;28;20212;-63
2021/01/22 04:57:34;;;;;;;1.33;0.60;;;;;;;25.42;33.84;96125.19;4973250;28;20205;-63
2021/01/22 05:00:03;;;;;;;1.10;0.60;;;;;;;25.40;33.31;96115.78;4971858;28;20240;-64
2021/01/22 05:02:29;;;;;;;1.40;0.70;;;;;;;25.40;33.56;96131.84;4980421;28;20198;-64
2021/01/22 05:04:56;;;;;;;2.20;0.70;;;;;;;25.36;33.93;96120.78;4990511;28;20205;-63
2021/01/22 05:07:22;;;;;;;1.10;0.50;;;;;;;25.34;32.94;96122.88;4989759;28;20687;-63
2021/01/22 05:09:48;;;;;;;1.15;0.50;;;;;;;25.30;34.08;96111.84;4988764;28;20225;-64
2021/01/22 05:12:15;;;;;;;0.60;0.52;;;;;;;25.34;32.82;96117.53;4989555;28;20259;-64
2021/01/22 05:14:41;;;;;;;2.42;0.60;;;;;;;25.32;34.01;96092.88;4989612;28;20253;-63
2021/01/22 05:17:09;;;;;;;0.60;0.50;;;;;;;25.32;34.01;96124.19;4989654;28;20211;-63
2021/01/22 05:19:36;;;;;;;1.48;0.60;;;;;;;25.30;33.12;96101.16;4989974;28;20232;-63
2021/01/22 05:22:03;;;;;;;1.85;0.50;;;;;;;25.36;33.51;96102.03;4988795;28;20205;-63
2021/01/22 05:24:30;;;;;;;1.10;0.55;;;;;;;25.40;33.73;96102.41;4989332;28;20211;-63
2021/01/22 05:27:01;;;;;;;1.30;0.60;;;;;;;25.35;33.59;96089.75;4990543;28;20197;-63
2021/01/22 05:29:27;;;;;;;1.65;0.40;;;;;;;25.34;33.29;96080.09;4990755;28;20229;-63
2021/01/22 05:31:53;;;;;;;1.25;0.50;;;;;;;25.36;32.82;96077.97;4991379;28;20212;-63
2021/01/22 05:34:20;;;;;;;1.98;0.47;;;;;;;25.23;33.70;96075.53;4989067;28;20320;-63
2021/01/22 05:36:48;;;;;;;1.85;0.60;;;;;;;25.19;33.46;96087.78;4989314;28;20661;-63
2021/01/22 05:39:22;;;;;;;1.98;0.80;;;;;;;25.16;34.51;96096.25;4990529;28;20609;-62
2021/01/22 05:41:55;;;;;;;4.28;0.77;;;;;;;25.03;34.59;96089.28;4989025;28;20232;-63
2021/01/22 05:44:25;;;;;;;4.13;0.98;;;;;;;25.07;34.62;96091.28;4990085;28;20209;-64
2021/01/22 05:47:06;;;;;;;3.47;0.60;;;;;;;25.07;34.48;96093.13;4989439;28;20573;-61
2021/01/22 05:49:34;;;;;;;2.10;0.60;;;;;;;25.11;34.45;96105.81;4989674;28;20225;-59
2021/01/22 05:52:00;;;;;;;1.88;0.60;;;;;;;25.11;33.63;96092.44;4990649;28;20205;-62
2021/01/22 05:54:34;;;;;;;2.20;0.50;;;;;;;25.09;33.97;96078.47;4988215;28;20739;-63
2021/01/22 05:57:00;;;;;;;1.10;0.60;;;;;;;25.11;33.31;96081.75;4991606;28;20205;-62
2021/01/22 05:59:26;;;;;;;15.82;1.30;;;;;;;25.20;34.40;96089.41;4994156;28;20225;-64
2021/01/22 06:01:53;;;;;;;12.25;1.95;;;;;;;25.37;34.16;96087.63;4994615;28;20209;-63
2021/01/22 06:04:19;;;;;;;12.57;1.73;;;;;;;25.43;35.15;96081.34;4995143;28;20260;-63
2021/01/22 06:06:46;;;;;;;12.25;1.85;;;;;;;25.57;34.96;96086.44;4994103;28;20235;-62
2021/01/22 06:09:12;;;;;;;11.48;1.75;;;;;;;25.50;36.22;96094.59;4993043;28;20202;-63
2021/01/22 06:11:40;;;;;;;9.13;1.70;;;;;;;25.44;35.93;96079.47;4994963;28;20209;-63
2021/01/22 06:14:07;;;;;;;20.38;1.48;;;;;;;25.47;35.36;96077.13;4994165;28;20581;-65
2021/01/22 06:16:36;;;;;;;6.57;1.10;;;;;;;25.52;34.51;96071.09;4995266;28;20237;-66
2021/01/22 06:19:04;;;;;;;9.65;1.60;;;;;;;25.64;34.79;96068.34;4994970;28;20215;-66
2021/01/22 06:21:33;;;;;;;12.52;1.20;;;;;;;25.78;34.95;96069.69;4995752;28;20235;-65
2021/01/22 06:24:01;;;;;;;13.38;2.00;;;;;;;25.93;34.12;96071.00;4995066;28;20196;-67
2021/01/22 06:26:30;;;;;;;12.80;1.58;;;;;;;25.93;34.12;96057.63;4992843;28;20253;-66
2021/01/22 06:29:00;;;;;;;11.52;1.25;;;;;;;25.63;34.38;96067.56;4993984;28;20213;-65
2021/01/22 06:31:28;;;;;;;10.63;1.52;;;;;;;25.69;34.33;96054.28;4994594;28;20299;-66
2021/01/22 06:33:55;;;;;;;6.47;1.10;;;;;;;25.72;35.11;96065.31;4993900;28;20736;-67
2021/01/22 06:36:22;;;;;;;11.20;1.13;;;;;;;25.81;34.80;96058.53;4992921;28;20210;-66
2021/01/22 06:38:50;;;;;;;7.82;1.23;;;;;;;25.80;35.18;96070.28;4993595;28;20296;-67
2021/01/22 06:41:17;;;;;;;18.85;1.30;;;;;;;25.80;35.40;96062.25;4992941;28;20221;-65
2021/01/22 06:43:44;;;;;;;17.08;1.13;;;;;;;26.11;34.30;96062.78;4992976;28;20201;-65
2021/01/22 06:46:12;;;;;;;10.93;1.05;;;;;;;26.21;34.30;96084.41;4994244;28;20285;-66
2021/01/22 06:48:54;;;;;;;10.88;1.20;;;;;;;26.22;34.54;96080.66;4994998;28;20292;-66
2021/01/22 06:51:21;;;;;;;6.53;1.25;;;;;;;26.31;33.55;96073.06;4994813;28;20296;-66
2021/01/22 06:54:05;;;;;;;6.10;0.75;;;;;;;26.44;34.09;96079.94;4992957;28;20570;-66
2021/01/22 06:56:32;;;;;;;9.00;0.95;;;;;;;26.35;33.72;96076.06;4992948;28;20205;-65
2021/01/22 06:59:37;;;;;;;3.95;0.98;;;;;;;26.44;33.45;96071.91;4993818;28;20209;-65
2021/01/22 07:02:03;;;;;;;12.25;1.20;;;;;;;26.38;34.09;96072.91;4993508;28;20339;-66
2021/01/22 07:04:37;;;;;;;4.97;1.15;;;;;;;26.44;34.40;96071.91;4993412;28;20271;-64
2021/01/22 07:07:04;;;;;;;6.32;1.38;;;;;;;26.48;34.00;96066.84;4990905;28;20257;-64
2021/01/22 07:09:51;;;;;;;14.23;1.45;;;;;;;26.41;34.14;96072.38;4991681;28;20225;-65
2021/01/22 07:12:39;;;;;;;9.35;1.60;;;;;;;26.37;35.07;96080.09;4992340;28;20201;-65
2021/01/22 07:15:27;;;;;;;11.10;1.02;;;;;;;26.44;34.75;96077.25;4993529;28;20268;-65
2021/01/22 07:17:56;;;;;;;6.88;0.90;;;;;;;26.34;35.09;96063.72;4991979;28;20233;-67
2021/01/22 07:20:23;;;;;;;15.15;0.93;;;;;;;26.31;34.42;96072.22;4993376;28;20225;-64
2021/01/22 07:22:51;;;;;;;4.13;1.20;;;;;;;26.33;35.17;96075.47;4992835;28;20205;-66
2021/01/22 07:25:29;;;;;;;3.72;0.90;;;;;;;26.30;34.09;96070.63;4994855;28;20668;-65
2021/01/22 07:27:56;;;;;;;6.22;0.70;;;;;;;26.40;34.44;96074.25;4994733;28;20288;-66
2021/01/22 07:30:36;;;;;;;8.73;0.95;;;;;;;26.49;33.71;96069.28;4993919;28;20252;-65
2021/01/22 07:33:36;;;;;;;1.92;0.52;;;;;;;26.54;33.68;96071.25;4995432;28;20317;-66
2021/01/22 07:36:06;;;;;;;6.57;1.00;;;;;;;26.51;33.49;96067.22;4996749;28;20260;-66
2021/01/22 07:38:33;;;;;;;5.88;0.80;;;;;;;26.57;34.10;96054.69;4994506;28;20197;-65
2021/01/22 07:40:59;;;;;;;6.38;0.77;;;;;;;26.50;33.83;96054.84;4993605;28;20648;-65
2021/01/22 07:43:27;;;;;;;3.78;0.80;;;;;;;26.46;34.11;96053.69;4992470;28;20210;-65
2021/01/22 07:46:03;;;;;;;2.55;0.50;;;;;;;26.37;33.96;96065.91;4991446;28;20209;-67
2021/01/22 07:48:29;;;;;;;10.18;1.05;;;;;;;26.43;34.17;96064.94;4990956;28;20632;-66
2021/01/22 07:50:56;;;;;;;3.95;0.75;;;;;;;26.47;34.19;96065.25;4991058;28;20308;-64
2021/01/22 07:53:22;;;;;;;7.53;0.98;;;;;;;26.58;33.52;96067.84;4991180;28;20352;-66
2021/01/22 07:55:52;;;;;;;4.63;0.85;;;;;;;26.68;33.34;96071.75;4992179;28;20275;-65
2021/01/22 07:58:18;;;;;;;6.22;0.90;;;;;;;26.76;33.15;96079.38;4991732;28;20635;-66
2021/01/22 08:00:46;;;;;;;8.85;0.60;;;;;;;26.78;33.83;96071.91;4991130;28;20308;-66
2021/01/22 08:03:13;;;;;;;6.78;0.65;;;;;;;26.69;33.12;96059.97;4992802;28;20217;-65
2021/01/22 08:05:40;;;;;;;4.05;0.82;;;;;;;26.76;33.61;96071.34;4993255;28;20249;-67
2021/01/22 08:08:17;;;;;;;2.72;0.80;;;;;;;26.64;32.87;96073.31;4989972;28;20731;-63
2021/01/22 08:10:44;;;;;;;7.15;0.95;;;;;;;26.42;34.13;96065.97;4993925;28;20224;-68
2021/01/22 08:13:10;;;;;;;6.22;0.63;;;;;;;26.45;33.81;96062.81;4992205;28;20229;-69
2021/01/22 08:15:37;;;;;;;2.00;0.73;;;;;;;26.38;34.60;96056.81;4991221;28;20236;-67
2021/01/22 08:18:06;;;;;;;4.03;0.68;;;;;;;26.40;33.86;96065.41;4991005;28;20232;-66
2021/01/22 08:20:33;;;;;;;2.25;0.65;;;;;;;26.37;34.10;96066.69;4992366;28;20229;-69
2021/01/22 08:22:59;;;;;;;13.48;0.70;;;;;;;26.52;34.13;96063.44;4991945;28;20748;-71
2021/01/22 08:25:31;;;;;;;1.75;0.60;;;;;;;26.45;34.09;96065.50;4991422;28;20268;-70
2021/01/22 08:27:57;;;;;;;7.70;0.95;;;;;;;26.51;34.40;96077.94;4977455;28;20217;-72
2021/01/22 08:30:25;;;;;;;5.05;0.65;;;;;;;26.54;33.98;96058.66;4976917;23;20372;-71
2021/01/22 08:32:52;;;;;;;4.47;0.50;;;;;;;26.62;33.83;96052.06;4953451;28;20215;-70
2021/01/22 08:35:20;;;;;;;4.20;0.60;;;;;;;26.57;33.64;96060.03;4955045;28;20202;-70
2021/01/22 08:37:47;;;;;;;3.88;0.90;;;;;;;26.57;33.81;96065.41;4957959;28;20248;-72
2021/01/22 08:40:15;;;;;;;1.88;0.57;;;;;;;26.52;34.32;96058.09;4944621;28;20259;-72
2021/01/22 08:42:41;;;;;;;1.80;0.60;;;;;;;26.49;34.04;96053.22;4934632;29;20207;-69
2021/01/22 08:45:11;;;;;;;0.77;0.40;;;;;;;26.46;34.21;96064.41;4933200;29;20247;-70
2021/01/22 08:47:41;;;;;;;2.67;0.70;;;;;;;26.51;34.79;96050.28;4935556;29;20342;-71
2021/01/22 08:50:09;;;;;;;4.63;0.50;;;;;;;26.54;33.86;96047.94;4933478;29;20719;-70
2021/01/22 08:52:36;;;;;;;1.73;0.52;;;;;;;26.56;34.54;96056.56;4932820;29;20239;-70
2021/01/22 08:55:02;;;;;;;1.67;0.80;;;;;;;26.56;33.82;96045.84;4934809;29;20746;-68
2021/01/22 08:57:29;;;;;;;0.43;0.30;;;;;;;26.57;34.90;96054.69;4933059;29;20208;-70
2021/01/22 08:59:57;;;;;;;5.28;0.52;;;;;;;26.79;33.93;96053.94;4932852;29;20270;-70
2021/01/22 09:02:36;;;;;;;2.55;0.60;;;;;;;26.86;33.35;96058.09;4934097;29;20706;-71
2021/01/22 09:05:11;;;;;;;3.25;0.70;;;;;;;26.79;33.82;96062.00;4933293;29;20290;-70
2021/01/22 09:07:38;;;;;;;4.63;0.63;;;;;;;26.85;34.53;96067.19;4934712;29;20563;-70
2021/01/22 09:10:06;;;;;;;5.95;0.75;;;;;;;26.84;34.31;96062.88;4932965;29;20255;-70
2021/01/22 09:12:33;;;;;;;3.63;0.80;;;;;;;26.75;34.71;96061.69;4931936;29;20290;-71
2021/01/22 09:15:01;;;;;;;6.22;0.50;;;;;;;26.74;34.12;96071.56;4934602;29;20697;-71
2021/01/22 09:17:36;;;;;;;5.35;0.68;;;;;;;26.79;34.80;96065.47;4932719;29;20250;-71
2021/01/22 09:20:06;;;;;;;2.78;0.73;;;;;;;26.74;34.63;96065.41;4934483;29;20274;-72
2021/01/22 09:22:33;;;;;;;2.25;0.80;;;;;;;26.68;34.37;96069.91;4934551;29;20239;-72
2021/01/22 09:25:01;;;;;;;6.22;0.57;;;;;;;26.70;34.58;96069.66;4933999;29;20349;-71
2021/01/22 09:27:28;;;;;;;2.42;0.60;;;;;;;26.71;34.65;96072.09;4933740;29;20243;-69
2021/01/22 09:29:54;;;;;;;2.38;0.68;;;;;;;26.73;34.37;96071.81;4933030;29;20334;-69
2021/01/22 09:32:21;;;;;;;1.77;0.60;;;;;;;26.72;34.24;96064.84;4937535;29;20639;-69
2021/01/22 09:34:47;;;;;;;2.38;0.60;;;;;;;26.75;34.79;96056.31;4939580;29;20259;-70
2021/01/22 09:37:14;;;;;;;1.92;0.40;;;;;;;26.76;34.87;96069.47;4939402;29;20262;-70
2021/01/22 09:39:40;;;;;;;4.70;0.57;;;;;;;26.78;34.55;96063.88;4940257;29;20314;-70
2021/01/22 09:42:08;;;;;;;1.13;0.50;;;;;;;26.80;35.09;96077.84;4940369;29;20289;-69
2021/01/22 09:44:34;;;;;;;2.92;0.50;;;;;;;26.72;34.68;96078.25;4920880;29;20246;-70
2021/01/22 09:47:01;;;;;;;1.13;0.40;;;;;;;26.78;34.73;96071.91;4920278;29;20215;-69
2021/01/22 09:49:27;;;;;;;2.17;0.90;;;;;;;26.68;35.05;96067.22;4923059;29;20282;-70
2021/01/22 09:51:53;;;;;;;4.15;0.50;;;;;;;26.64;35.12;96071.44;4938461;29;20247;-69
2021/01/22 09:54:19;;;;;;;3.60;0.63;;;;;;;26.72;35.28;96078.25;4938385;29;20317;-72
2021/01/22 09:56:45;;;;;;;3.03;0.43;;;;;;;26.70;34.64;96072.34;4936155;29;20536;-70
2021/01/22 09:59:13;;;;;;;0.63;0.40;;;;;;;26.77;34.73;96086.38;4939534;29;20207;-71
2021/01/22 10:01:39;;;;;;;6.32;0.70;;;;;;;26.88;34.44;96077.41;4938955;29;20223;-70
2021/01/22 10:04:05;;;;;;;1.30;0.50;;;;;;;26.88;34.57;96072.06;4938080;29;20230;-70
2021/01/22 10:06:32;;;;;;;0.47;0.40;;;;;;;26.89;34.82;96079.03;4939866;29;20242;-70
2021/01/22 10:08:58;;;;;;;6.25;0.57;;;;;;;26.97;34.63;96079.69;4940017;29;20242;-70
2021/01/22 10:11:24;;;;;;;1.50;0.40;;;;;;;26.96;34.67;96076.16;4937056;29;20508;-71
2021/01/22 10:13:54;;;;;;;3.55;0.68;;;;;;;27.08;33.88;96062.66;4938583;29;20227;-74
2021/01/22 10:16:23;;;;;;;19.25;5.68;;;;;;;27.20;34.34;96067.91;4938428;29;20211;-71
2021/01/22 10:18:51;;;;;;;30.02;10.57;;;;;;;27.11;33.75;96048.75;4939382;29;20555;-71
2021/01/22 10:21:18;;;;;;;8.52;2.13;;;;;;;27.03;34.30;96057.22;4938512;29;20270;-72
2021/01/22 10:23:48;;;;;;;10.52;3.30;;;;;;;26.95;34.33;96048.56;4940202;29;20687;-66
2021/01/22 10:26:14;;;;;;;16.40;3.63;;;;;;;26.96;33.78;96046.66;4939842;29;20207;-70
2021/01/22 10:28:41;;;;;;;14.18;2.20;;;;;;;26.97;33.22;96058.22;4937928;29;20254;-66
2021/01/22 10:31:07;;;;;;;10.35;2.00;;;;;;;26.94;32.98;96049.59;4940864;29;20660;-66
2021/01/22 10:33:34;;;;;;;3.90;1.58;;;;;;;26.88;32.96;96044.41;4940889;29;20227;-67
2021/01/22 10:36:01;;;;;;;5.68;1.38;;;;;;;26.77;32.88;96043.47;4942975;29;20239;-65
2021/01/22 10:38:27;;;;;;;5.75;1.58;;;;;;;26.79;33.66;96048.59;4946764;29;20226;-63
2021/01/22 10:40:54;;;;;;;4.43;1.45;;;;;;;26.71;32.86;96052.50;4940954;29;20298;-67
2021/01/22 10:43:21;;;;;;;5.03;1.50;;;;;;;26.74;32.92;96050.13;4937068;28;20653;-72
2021/01/22 10:45:47;;;;;;;4.47;1.65;;;;;;;26.55;33.40;96041.53;4936241;29;20294;-69
2021/01/22 10:48:14;;;;;;;5.13;1.33;;;;;;;26.55;33.10;96057.59;4935341;29;20242;-72
2021/01/22 10:50:41;;;;;;;6.25;1.60;;;;;;;26.40;33.47;96049.34;4936293;29;20270;-72
2021/01/22 10:53:07;;;;;;;5.93;1.60;;;;;;;26.25;33.88;96054.44;4934545;29;20296;-71
2021/01/22 10:55:34;;;;;;;3.58;1.25;;;;;;;26.32;34.04;96047.06;4936442;28;20242;-70
2021/01/22 10:58:00;;;;;;;6.40;1.23;;;;;;;26.27;33.17;96038.97;4934088;29;20533;-70
2021/01/22 11:00:26;;;;;;;3.63;1.42;;;;;;;26.32;34.10;96037.16;4934876;29;20231;-70
2021/01/22 11:02:52;;;;;;;6.00;1.23;;;;;;;26.30;33.86;96041.16;4936374;29;20266;-71
2021/01/22 11:05:19;;;;;;;4.53;1.13;;;;;;;26.30;34.14;96036.59;4933022;29;20238;-71
2021/01/22 11:07:46;;;;;;;3.95;1.30;;;;;;;26.07;34.17;96034.09;4935012;29;20211;-70
2021/01/22 11:10:13;;;;;;;5.47;1.17;;;;;;;26.08;34.13;96033.84;4933856;29;20234;-69
2021/01/22 11:12:39;;;;;;;2.60;1.08;;;;;;;26.13;33.65;96033.09;4934949;29;20277;-68
2021/01/22 11:15:07;;;;;;;2.30;1.00;;;;;;;26.12;34.88;96026.94;4933584;29;20231;-70
2021/01/22 11:17:33;;;;;;;3.30;0.93;;;;;;;25.98;34.93;96030.97;4935040;29;20207;-71
2021/01/22 11:20:02;;;;;;;6.72;1.00;;;;;;;25.91;34.54;96031.09;4935160;29;20310;-73
2021/01/22 11:22:29;;;;;;;10.60;0.98;;;;;;;25.94;34.92;96035.16;4935369;29;20226;-68
2021/01/22 11:24:56;;;;;;;2.88;1.00;;;;;;;26.18;34.12;96025.13;4935075;29;20234;-68
2021/01/22 11:27:22;;;;;;;3.28;1.27;;;;;;;26.33;34.87;96021.88;4934831;29;20242;-68
2021/01/22 11:29:48;;;;;;;5.75;1.20;;;;;;;26.50;34.17;96022.69;4934404;29;20274;-68
2021/01/22 11:32:14;;;;;;;2.75;0.70;;;;;;;26.63;33.83;96023.41;4934636;29;20346;-68
2021/01/22 11:34:41;;;;;;;4.55;0.82;;;;;;;26.69;34.05;96011.72;4934231;29;20630;-67
2021/01/22 11:37:07;;;;;;;1.38;0.75;;;;;;;26.84;33.84;96016.50;4935638;29;20304;-68
2021/01/22 11:39:35;;;;;;;2.97;0.80;;;;;;;26.85;33.84;96021.59;4933650;29;20255;-68